Time;durP1;ratioP1;P1;durP2;ratioP2;P2;SDS_P1;SDS_P2;PMS_P1;PMS_P2;Temp;Humidity;BMP_temperature;BMP_pressure;BME280_temperature;BME280_humidity;BME280_pressure;Samples;Min_cycle;Max_cycle;Signal;HPM_P1;HPM_P2
2021/10/14 00:03:10;;;;;;;7.72;4.80;;;;;;;7.70;86.83;101278.88;8469677;33;20574;-75
2021/10/14 00:08:15;;;;;;;9.30;4.50;;;;;;;7.72;86.95;101282.34;8480847;34;20853;-75
2021/10/14 00:13:18;;;;;;;12.20;5.78;;;;;;;7.53;87.20;101280.78;8482284;33;20650;-75
2021/10/14 00:18:21;;;;;;;12.63;5.55;;;;;;;7.79;87.02;101271.31;8480718;34;20161;-77
2021/10/14 00:23:25;;;;;;;10.25;6.90;;;;;;;7.67;87.72;101268.38;8468045;33;20495;-77
2021/10/14 00:28:29;;;;;;;10.15;5.32;;;;;;;7.39;89.24;101261.00;8467962;34;20457;-76
2021/10/14 00:33:32;;;;;;;10.10;5.18;;;;;;;7.57;88.40;101261.81;8461614;33;20142;-75
2021/10/14 00:38:36;;;;;;;12.23;7.22;;;;;;;7.46;89.54;101258.84;8461704;34;20244;-76
2021/10/14 00:43:40;;;;;;;13.13;6.55;;;;;;;7.50;88.94;101265.75;8461514;33;20956;-75
2021/10/14 00:48:43;;;;;;;14.07;8.07;;;;;;;7.45;88.92;101267.81;8463646;34;20189;-76
2021/10/14 00:53:48;;;;;;;15.45;7.22;;;;;;;7.59;88.08;101261.72;8462929;33;20457;-75
2021/10/14 00:58:51;;;;;;;17.67;10.13;;;;;;;7.45;88.63;101251.78;8439348;34;20542;-76
2021/10/14 01:03:54;;;;;;;20.48;10.82;;;;;;;7.51;88.37;101246.09;8467491;33;20466;-75
2021/10/14 01:08:59;;;;;;;20.23;11.70;;;;;;;7.54;88.06;101261.09;8482473;34;20487;-76
2021/10/14 01:14:02;;;;;;;20.70;11.20;;;;;;;7.65;87.14;101256.03;8478396;33;20881;-76
2021/10/14 01:19:05;;;;;;;19.33;10.50;;;;;;;7.56;87.17;101243.16;8483378;34;20157;-75
2021/10/14 01:24:10;;;;;;;19.73;12.88;;;;;;;7.63;87.15;101241.91;8481021;33;20439;-76
2021/10/14 01:29:13;;;;;;;16.70;10.98;;;;;;;7.54;87.51;101235.22;8471644;33;20695;-76
2021/10/14 01:34:17;;;;;;;21.27;9.57;;;;;;;7.54;87.11;101235.22;8466906;33;20406;-75
2021/10/14 01:39:21;;;;;;;18.17;10.02;;;;;;;7.46;87.83;101226.75;8467426;34;20713;-76
2021/10/14 01:44:24;;;;;;;21.83;13.13;;;;;;;7.53;87.93;101221.94;8466277;33;20510;-75
2021/10/14 01:49:27;;;;;;;20.00;11.77;;;;;;;7.34;88.39;101247.00;8466824;34;20537;-76
2021/10/14 01:54:32;;;;;;;22.50;10.60;;;;;;;7.55;87.97;101236.09;8443585;33;20477;-75
2021/10/14 01:59:35;;;;;;;23.23;12.63;;;;;;;7.46;87.88;101229.44;8469059;34;20153;-75
2021/10/14 02:04:38;;;;;;;23.88;12.25;;;;;;;7.68;86.87;101218.44;8481160;34;20680;-76
2021/10/14 02:09:42;;;;;;;23.58;14.57;;;;;;;7.60;87.26;101226.03;8481466;34;20172;-75
2021/10/14 02:14:45;;;;;;;25.60;16.20;;;;;;;7.45;88.45;101215.19;8485639;33;20248;-77
2021/10/14 02:19:48;;;;;;;26.55;14.45;;;;;;;7.60;87.55;101220.69;8485871;34;20154;-77
2021/10/14 02:24:52;;;;;;;27.02;16.90;;;;;;;7.58;87.75;101231.44;8523520;28;20215;-72
2021/10/14 02:29:55;;;;;;;35.88;18.08;;;;;;;7.50;88.25;101218.50;8536372;33;20493;-72
2021/10/14 02:34:58;;;;;;;34.70;15.95;;;;;;;7.58;87.84;101220.75;8540576;33;20409;-72
2021/10/14 02:40:05;;;;;;;35.38;17.40;;;;;;;7.80;87.29;101223.09;8539089;33;20180;-72
2021/10/14 02:45:09;;;;;;;38.95;18.48;;;;;;;7.58;87.91;101231.44;8537804;33;20207;-72
2021/10/14 02:50:12;;;;;;;30.38;16.50;;;;;;;7.52;88.58;101228.25;8538063;33;20512;-71
2021/10/14 02:55:17;;;;;;;35.13;17.45;;;;;;;7.75;87.77;101230.50;8527654;33;20417;-72
2021/10/14 03:00:20;;;;;;;31.58;16.38;;;;;;;7.72;87.62;101222.66;8531225;33;20204;-71
2021/10/14 03:05:23;;;;;;;35.70;18.05;;;;;;;7.70;87.94;101221.88;8536505;33;20160;-71
2021/10/14 03:10:28;;;;;;;31.52;17.75;;;;;;;7.59;88.11;101229.63;8528195;33;20551;-71
2021/10/14 03:15:31;;;;;;;30.42;16.50;;;;;;;7.41;89.16;101216.34;8526243;33;20219;-72
2021/10/14 03:20:34;;;;;;;41.42;19.35;;;;;;;7.72;88.20;101210.13;8525636;33;20151;-72
2021/10/14 03:25:38;;;;;;;35.30;17.75;;;;;;;7.59;89.15;101216.25;8526500;33;20145;-72
2021/10/14 03:30:41;;;;;;;35.60;21.23;;;;;;;7.57;89.56;101213.69;8528822;33;21074;-72
2021/10/14 03:35:44;;;;;;;34.45;18.52;;;;;;;7.69;89.50;101226.38;8533080;33;20460;-73
2021/10/14 03:40:49;;;;;;;27.38;16.77;;;;;;;7.69;89.69;101217.47;8542325;33;20542;-72
2021/10/14 03:45:52;;;;;;;33.38;18.95;;;;;;;7.68;89.38;101213.94;8541380;33;20160;-72
2021/10/14 03:50:55;;;;;;;39.28;19.83;;;;;;;7.76;89.41;101205.47;8535225;33;20147;-72
2021/10/14 03:55:59;;;;;;;28.20;16.92;;;;;;;7.61;90.34;101211.69;8515925;33;20156;-72
2021/10/14 04:01:02;;;;;;;31.30;16.08;;;;;;;7.89;89.08;101211.00;8526597;33;20455;-72
2021/10/14 04:06:06;;;;;;;23.38;13.05;;;;;;;7.89;88.55;101214.53;8523494;33;20137;-72
2021/10/14 04:11:10;;;;;;;27.70;14.63;;;;;;;7.82;89.94;101210.50;8525704;33;20140;-73
2021/10/14 04:16:14;;;;;;;25.00;13.95;;;;;;;7.99;88.68;101197.97;8525085;33;20400;-73
2021/10/14 04:21:17;;;;;;;22.08;13.27;;;;;;;7.87;89.17;101200.41;8501371;33;20176;-73
2021/10/14 04:26:21;;;;;;;27.08;14.60;;;;;;;7.98;88.85;101209.63;8523570;33;20184;-73
2021/10/14 04:31:24;;;;;;;29.80;14.23;;;;;;;7.85;88.83;101196.09;8524920;33;20401;-73
2021/10/14 04:36:28;;;;;;;29.05;15.23;;;;;;;7.91;89.46;101195.72;8524738;33;20441;-73
2021/10/14 04:41:33;;;;;;;30.10;17.52;;;;;;;7.91;89.69;101215.31;8523207;33;20140;-73
2021/10/14 04:46:36;;;;;;;32.08;16.40;;;;;;;7.99;89.01;101209.53;8522572;33;20145;-72
2021/10/14 04:51:39;;;;;;;30.70;16.90;;;;;;;7.99;89.39;101212.22;8522727;33;20645;-73
2021/10/14 04:56:43;;;;;;;35.25;18.38;;;;;;;7.90;90.12;101200.22;8514585;33;20267;-72
2021/10/14 05:01:46;;;;;;;37.97;19.52;;;;;;;7.93;90.05;101193.84;8512751;33;20407;-73
2021/10/14 05:06:50;;;;;;;37.60;19.40;;;;;;;8.00;89.41;101203.22;8515314;33;20243;-72
2021/10/14 05:11:54;;;;;;;40.38;18.75;;;;;;;7.96;90.23;101204.38;8518926;33;20270;-73
2021/10/14 05:16:57;;;;;;;34.65;16.85;;;;;;;8.01;90.23;101206.75;8520628;33;20558;-73
2021/10/14 05:22:00;;;;;;;35.88;18.45;;;;;;;7.82;90.26;101201.63;8521705;33;20424;-73
2021/10/14 05:27:05;;;;;;;43.40;21.63;;;;;;;7.91;90.19;101201.09;8513790;33;20409;-73
2021/10/14 05:32:08;;;;;;;39.10;19.83;;;;;;;8.11;88.91;101194.56;8513744;33;20445;-73
2021/10/14 05:37:11;;;;;;;46.35;20.80;;;;;;;7.83;90.84;101196.16;8520060;33;20422;-72
2021/10/14 05:42:15;;;;;;;42.53;21.35;;;;;;;8.07;89.57;101207.28;8532263;33;20454;-73
2021/10/14 05:47:19;;;;;;;43.65;22.33;;;;;;;8.25;89.14;101199.13;8513520;33;20495;-73
2021/10/14 05:52:26;;;;;;;45.70;22.55;;;;;;;8.13;89.51;101209.59;8538735;33;20322;-72
2021/10/14 05:57:31;;;;;;;47.83;24.55;;;;;;;8.08;90.05;101211.69;8536080;33;20515;-73
2021/10/14 06:02:34;;;;;;;42.40;21.83;;;;;;;8.19;89.64;101224.44;8541059;33;20748;-73
2021/10/14 06:07:37;;;;;;;45.83;22.63;;;;;;;8.02;90.70;101219.19;8542164;33;21002;-73
2021/10/14 06:12:41;;;;;;;49.00;24.00;;;;;;;8.10;90.65;101212.47;8542046;33;20973;-73
2021/10/14 06:17:45;;;;;;;40.58;20.92;;;;;;;7.84;91.31;101216.59;8531226;33;20570;-72
2021/10/14 06:22:48;;;;;;;50.92;22.88;;;;;;;8.03;91.14;101210.22;8528259;33;20160;-73
2021/10/14 06:27:52;;;;;;;49.20;21.58;;;;;;;8.25;89.96;101204.47;8537245;33;20235;-73
2021/10/14 06:32:55;;;;;;;46.25;22.00;;;;;;;8.29;89.94;101206.91;8530893;33;20489;-73
2021/10/14 06:37:59;;;;;;;44.13;23.48;;;;;;;8.25;90.14;101196.44;8527848;33;20487;-73
2021/10/14 06:43:04;;;;;;;47.90;22.90;;;;;;;8.32;89.48;101205.88;8529523;33;20141;-73
2021/10/14 06:48:07;;;;;;;47.58;23.33;;;;;;;8.36;89.46;101192.22;8524325;33;20645;-73
2021/10/14 06:53:11;;;;;;;41.67;21.95;;;;;;;8.48;88.88;101190.66;8527570;33;20553;-73
2021/10/14 06:58:16;;;;;;;43.05;22.38;;;;;;;8.36;89.77;101194.91;8528291;33;20462;-73
2021/10/14 07:03:19;;;;;;;40.78;21.98;;;;;;;8.43;89.71;101198.06;8526605;33;20545;-73
2021/10/14 07:08:22;;;;;;;42.15;20.58;;;;;;;8.33;90.07;101200.41;8527346;33;20145;-73
2021/10/14 07:13:26;;;;;;;39.30;18.83;;;;;;;8.51;89.06;101192.28;8526935;33;20252;-73
2021/10/14 07:18:30;;;;;;;42.22;20.73;;;;;;;8.58;88.92;101193.63;8527732;33;20488;-73
2021/10/14 07:23:32;;;;;;;42.85;21.42;;;;;;;8.55;89.22;101185.78;8526460;33;20483;-73
2021/10/14 07:28:37;;;;;;;42.70;18.80;;;;;;;8.40;89.95;101187.53;8528009;33;20702;-73
2021/10/14 07:33:40;;;;;;;41.42;20.25;;;;;;;8.52;90.05;101186.81;8540806;33;20348;-73
2021/10/14 07:38:43;;;;;;;41.30;19.67;;;;;;;8.52;89.75;101196.69;8545787;33;20917;-74
2021/10/14 07:43:48;;;;;;;34.28;16.80;;;;;;;8.59;89.64;101193.53;8541890;33;21000;-74
2021/10/14 07:48:51;;;;;;;29.20;13.75;;;;;;;8.39;90.13;101185.78;8532472;33;20133;-74
2021/10/14 07:53:54;;;;;;;23.75;12.90;;;;;;;8.60;89.73;101197.94;8535452;33;20141;-74
2021/10/14 07:58:59;;;;;;;18.38;10.57;;;;;;;8.65;89.98;101196.81;8541243;33;20452;-74
2021/10/14 08:04:03;;;;;;;19.38;10.13;;;;;;;8.43;90.44;101206.09;8533401;33;20398;-74
2021/10/14 08:09:06;;;;;;;21.17;10.80;;;;;;;8.41;90.71;101205.31;8523528;33;20413;-74
2021/10/14 08:14:12;;;;;;;20.00;10.75;;;;;;;8.41;91.09;101202.63;8502927;33;20473;-74
2021/10/14 08:19:15;;;;;;;28.30;13.38;;;;;;;8.44;91.39;101194.41;8526591;33;20515;-74
2021/10/14 08:24:20;;;;;;;35.03;15.88;;;;;;;8.71;90.30;101197.28;8531376;28;20517;-73
2021/10/14 08:29:26;;;;;;;38.35;16.90;;;;;;;8.51;91.75;101194.97;8525656;33;20152;-74
2021/10/14 08:34:30;;;;;;;52.30;20.85;;;;;;;8.57;90.73;101189.22;8511981;33;20451;-74
2021/10/14 08:39:33;;;;;;;59.83;23.75;;;;;;;8.58;91.84;101196.31;8469134;34;20146;-73
2021/10/14 08:44:38;;;;;;;51.03;23.30;;;;;;;8.49;91.86;101188.84;8469285;33;20704;-73
2021/10/14 08:49:45;;;;;;;59.92;25.20;;;;;;;8.72;91.04;101195.47;8445935;34;20145;-74
2021/10/14 08:54:48;;;;;;;59.85;25.20;;;;;;;8.67;91.74;101202.94;8466253;33;20205;-74
2021/10/14 08:59:52;;;;;;;48.75;22.95;;;;;;;8.68;91.49;101218.91;8468675;34;20208;-75
2021/10/14 09:04:59;;;;;;;58.92;25.90;;;;;;;8.92;91.47;101210.38;8472340;33;20419;-75
2021/10/14 09:10:10;;;;;;;49.58;20.77;;;;;;;8.84;90.83;101209.00;8469486;34;20221;-75
2021/10/14 09:15:16;;;;;;;40.60;18.08;;;;;;;8.98;90.42;101224.22;8465324;33;20495;-74
2021/10/14 09:20:30;;;;;;;37.83;16.95;;;;;;;8.93;90.21;101223.66;8464655;34;20415;-74
2021/10/14 09:25:37;;;;;;;34.13;15.50;;;;;;;8.76;90.62;101221.13;8461972;33;20923;-74
2021/10/14 09:30:55;;;;;;;37.80;17.13;;;;;;;8.89;90.97;101214.09;8461332;34;20914;-74
2021/10/14 09:36:16;;;;;;;46.95;18.70;;;;;;;9.08;90.59;101204.91;8462072;33;20146;-74
2021/10/14 09:41:22;;;;;;;47.47;21.35;;;;;;;8.91;91.60;101203.25;8466154;34;20447;-74
2021/10/14 09:46:39;;;;;;;58.58;25.35;;;;;;;9.12;90.41;101204.63;8467555;33;20235;-74
2021/10/14 09:51:45;;;;;;;57.95;24.85;;;;;;;9.02;91.10;101204.34;8467289;34;20490;-74
2021/10/14 09:56:48;;;;;;;68.07;28.05;;;;;;;9.03;91.41;101203.38;8444198;34;20535;-74
2021/10/14 10:01:57;;;;;;;74.13;27.27;;;;;;;9.24;90.54;101189.59;8467848;34;20149;-74
2021/10/14 10:07:04;;;;;;;76.32;29.38;;;;;;;9.19;91.21;101186.34;8479402;33;20422;-74
2021/10/14 10:12:12;;;;;;;77.07;29.80;;;;;;;9.16;91.58;101195.44;8489651;34;20788;-74
2021/10/14 10:17:37;;;;;;;81.40;31.95;;;;;;;9.44;91.15;101182.97;8476852;33;20408;-74
2021/10/14 10:22:51;;;;;;;73.32;30.92;;;;;;;9.55;90.67;101175.09;8476618;34;20716;-74
2021/10/14 10:27:57;;;;;;;76.30;33.13;;;;;;;9.86;89.80;101173.16;8472894;33;20153;-74
2021/10/14 10:33:02;;;;;;;84.85;35.42;;;;;;;9.88;89.79;101172.09;8459977;34;20199;-74
2021/10/14 10:38:15;;;;;;;81.13;32.00;;;;;;;9.97;88.95;101162.56;8466495;33;20505;-74
2021/10/14 10:43:23;;;;;;;79.10;32.97;;;;;;;10.04;88.64;101157.63;8465110;33;20227;-74
2021/10/14 10:48:39;;;;;;;71.95;29.73;;;;;;;9.96;88.89;101158.16;8465287;34;20231;-74
2021/10/14 10:53:44;;;;;;;75.85;33.83;;;;;;;10.17;88.33;101158.53;8466181;33;20432;-74
2021/10/14 10:58:49;;;;;;;79.78;31.77;;;;;;;10.25;88.57;101152.66;8471361;34;20899;-74
2021/10/14 11:03:57;;;;;;;77.03;33.78;;;;;;;10.49;87.05;101150.13;8471566;33;20593;-74
2021/10/14 11:09:02;;;;;;;68.45;31.65;;;;;;;10.17;87.58;101142.44;8467043;34;20494;-74
2021/10/14 11:14:06;;;;;;;69.50;28.50;;;;;;;9.90;88.58;101134.41;8462399;33;20232;-74
2021/10/14 11:19:17;;;;;;;68.82;28.15;;;;;;;9.94;88.67;101142.16;8463393;34;21062;-74
2021/10/14 11:24:23;;;;;;;64.82;29.38;;;;;;;9.94;88.11;101142.16;8463561;33;20711;-74
2021/10/14 11:29:29;;;;;;;61.72;25.10;;;;;;;9.91;88.04;101139.69;8465237;34;20184;-74
2021/10/14 11:34:34;;;;;;;65.15;27.92;;;;;;;10.19;87.35;101136.97;8464477;33;20525;-74
2021/10/14 11:39:40;;;;;;;64.00;31.45;;;;;;;10.23;87.03;101130.41;8459573;34;20536;-74
2021/10/14 11:44:46;;;;;;;67.38;29.88;;;;;;;10.47;86.73;101127.88;8460992;33;20564;-74
2021/10/14 11:50:02;;;;;;;55.95;26.70;;;;;;;10.16;87.03;101122.78;8462466;34;20460;-74
2021/10/14 11:55:08;;;;;;;57.92;25.95;;;;;;;10.25;86.74;101110.56;8459651;33;20419;-74
2021/10/14 12:00:13;;;;;;;55.85;26.85;;;;;;;10.19;87.08;101104.75;8467703;34;20930;-74
2021/10/14 12:05:20;;;;;;;53.53;24.48;;;;;;;10.09;87.43;101100.03;8467705;33;20426;-74
2021/10/14 12:10:35;;;;;;;53.67;27.10;;;;;;;9.97;88.16;101097.28;8462488;34;20643;-74
2021/10/14 12:15:38;;;;;;;64.03;27.60;;;;;;;9.96;88.24;101087.53;8459670;33;20414;-73
2021/10/14 12:20:44;;;;;;;49.42;23.40;;;;;;;9.89;88.76;101093.28;8459684;34;20578;-74
2021/10/14 12:25:47;;;;;;;57.47;23.63;;;;;;;9.64;90.19;101083.28;8483666;33;20443;-74
2021/10/14 12:30:50;;;;;;;52.95;24.60;;;;;;;9.67;90.50;101087.59;8499431;34;20484;-73
2021/10/14 12:35:58;;;;;;;56.63;28.02;;;;;;;9.86;90.17;101074.72;8473671;33;21032;-74
2021/10/14 12:41:05;;;;;;;59.67;29.63;;;;;;;9.72;90.31;101075.59;8470200;34;20524;-75
2021/10/14 12:51:42;;;;;;;66.18;31.52;;;;;;;9.94;90.70;101063.47;8470296;34;20212;-75
2021/10/14 12:56:48;;;;;;;71.72;29.33;;;;;;;9.88;91.19;101066.56;8471162;33;20199;-75
2021/10/14 13:01:59;;;;;;;72.20;35.58;;;;;;;9.99;90.38;101061.34;8470091;34;20448;-75
2021/10/14 13:07:03;;;;;;;69.97;32.17;;;;;;;10.32;90.08;101058.16;8462502;33;20613;-74
2021/10/14 13:12:08;;;;;;;63.50;30.90;;;;;;;10.34;89.85;101047.31;8462833;34;20506;-74
2021/10/14 13:17:11;;;;;;;66.97;33.67;;;;;;;10.50;89.43;101041.72;8466070;33;20419;-74
2021/10/14 13:22:15;;;;;;;66.22;31.27;;;;;;;10.38;89.57;101040.75;8468032;34;21222;-74
2021/10/14 13:27:20;;;;;;;62.78;32.85;;;;;;;10.56;88.25;101047.53;8466204;33;20427;-74
2021/10/14 13:32:23;;;;;;;60.80;31.27;;;;;;;10.77;87.44;101033.53;8466505;34;20700;-74
2021/10/14 13:37:27;;;;;;;62.75;31.67;;;;;;;10.93;86.63;101022.53;8460738;33;20146;-74
2021/10/14 13:42:34;;;;;;;72.90;37.67;;;;;;;11.02;86.71;101019.16;8463449;34;20584;-74
2021/10/14 13:47:37;;;;;;;63.00;28.27;;;;;;;10.78;86.30;101009.25;8465124;33;20477;-74
2021/10/14 13:52:42;;;;;;;53.65;26.13;;;;;;;11.03;85.40;101013.69;8466147;34;20416;-74
2021/10/14 13:57:47;;;;;;;49.17;24.27;;;;;;;10.84;85.58;101002.56;8466179;33;20455;-74
2021/10/14 14:02:51;;;;;;;49.72;26.35;;;;;;;10.96;85.89;100995.41;8470270;34;20871;-74
2021/10/14 14:07:56;;;;;;;42.05;22.65;;;;;;;10.73;85.46;100986.34;8468025;33;20422;-74
2021/10/14 14:13:00;;;;;;;51.83;29.50;;;;;;;10.95;85.32;100996.41;8467244;34;20258;-74
2021/10/14 14:18:04;;;;;;;46.90;25.52;;;;;;;10.93;85.55;100977.69;8466882;33;21082;-74
2021/10/14 14:23:10;;;;;;;62.97;33.55;;;;;;;10.69;85.64;100979.47;8463264;34;20682;-74
2021/10/14 14:28:13;;;;;;;69.00;39.35;;;;;;;10.82;85.74;100973.09;8458416;28;20927;-75
2021/10/14 14:33:17;;;;;;;49.55;27.20;;;;;;;10.85;85.18;100961.25;8412973;34;20418;-75
2021/10/14 14:38:21;;;;;;;47.22;24.77;;;;;;;10.77;85.52;100966.34;8458294;34;20526;-75
2021/10/14 14:43:25;;;;;;;51.50;25.38;;;;;;;10.86;85.86;100965.69;8441804;34;20157;-77
2021/10/14 14:48:28;;;;;;;51.65;28.98;;;;;;;10.89;85.60;100964.56;8466631;34;20145;-76
2021/10/14 14:53:33;;;;;;;34.38;17.38;;;;;;;10.80;85.26;100958.03;8469831;34;20489;-76
2021/10/14 14:58:38;;;;;;;53.92;28.67;;;;;;;10.79;85.46;100954.50;8467511;34;20119;-75
2021/10/14 15:03:43;;;;;;;75.75;39.88;;;;;;;10.86;85.54;100963.00;8462431;34;20288;-76
2021/10/14 15:08:49;;;;;;;54.78;27.88;;;;;;;10.80;85.88;100960.75;8464317;34;20642;-76
2021/10/14 15:13:52;;;;;;;76.60;38.88;;;;;;;11.05;84.86;100968.75;8466006;34;20134;-76
2021/10/14 15:18:55;;;;;;;53.97;27.35;;;;;;;10.78;85.79;100966.25;8443467;34;20239;-76
2021/10/14 15:23:59;;;;;;;56.40;31.25;;;;;;;10.79;85.22;100965.25;8466039;34;20146;-76
2021/10/14 15:29:03;;;;;;;60.50;30.55;;;;;;;10.94;85.30;100957.91;8462693;34;20421;-76
2021/10/14 15:34:07;;;;;;;59.30;36.35;;;;;;;10.99;84.93;100957.56;8436951;34;20493;-76
2021/10/14 15:39:12;;;;;;;53.78;31.00;;;;;;;10.84;85.80;100952.34;8440371;34;21010;-75
2021/10/14 15:44:16;;;;;;;51.13;27.40;;;;;;;10.96;84.92;100941.66;8470516;34;20232;-75
2021/10/14 15:49:19;;;;;;;45.22;26.27;;;;;;;10.87;84.72;100936.97;8472667;34;20557;-75
2021/10/14 15:54:24;;;;;;;45.57;25.67;;;;;;;10.88;84.16;100942.22;8470827;34;20436;-76
2021/10/14 15:59:27;;;;;;;48.30;27.13;;;;;;;10.94;84.23;100941.78;8471162;34;20146;-75
2021/10/14 16:04:30;;;;;;;41.85;22.00;;;;;;;10.85;84.33;100942.44;8471317;34;20149;-77
2021/10/14 16:09:34;;;;;;;46.88;25.38;;;;;;;10.85;84.74;100937.06;8485641;34;20506;-76
2021/10/14 16:14:38;;;;;;;50.08;27.58;;;;;;;10.89;84.48;100926.94;8449901;34;20947;-76
2021/10/14 16:19:41;;;;;;;43.72;24.52;;;;;;;10.76;85.16;100933.25;8452221;34;20150;-75
2021/10/14 16:24:49;;;;;;;45.20;25.05;;;;;;;10.79;85.07;100924.94;8472107;34;20197;-75
2021/10/14 16:29:54;;;;;;;41.30;25.38;;;;;;;10.91;85.06;100917.81;8469379;34;20462;-78
2021/10/14 16:34:57;;;;;;;50.08;28.33;;;;;;;11.01;84.57;100916.16;8443603;34;21041;-76
2021/10/14 16:40:02;;;;;;;43.22;24.88;;;;;;;11.04;84.42;100915.91;8467328;34;20423;-76
2021/10/14 16:45:07;;;;;;;38.17;23.30;;;;;;;11.03;84.64;100913.38;8464121;34;20517;-77
2021/10/14 16:50:14;;;;;;;41.43;24.90;;;;;;;11.05;84.58;100914.09;8443319;34;21045;-77
2021/10/14 16:55:20;;;;;;;44.50;24.00;;;;;;;10.85;85.12;100918.25;8465655;34;20149;-76
2021/10/14 17:00:25;;;;;;;59.30;32.30;;;;;;;10.97;84.69;100906.63;8442379;34;20614;-76
2021/10/14 17:05:32;;;;;;;46.70;25.42;;;;;;;10.90;84.68;100904.50;8442332;34;20152;-76
2021/10/14 17:10:40;;;;;;;41.45;22.27;;;;;;;10.82;84.98;100915.81;8468227;34;21002;-76
2021/10/14 17:15:43;;;;;;;36.70;24.17;;;;;;;10.91;84.59;100914.25;8441042;34;21020;-75
2021/10/14 17:21:05;;;;;;;34.50;22.33;;;;;;;10.87;84.66;100907.41;8464707;34;20410;-76
2021/10/14 17:42:16;;;;;;;50.55;28.80;;;;;;;10.78;84.15;100899.06;8482622;34;20653;-76
2021/10/14 17:47:28;;;;;;;60.08;31.65;;;;;;;10.84;83.78;100895.06;8485708;34;20401;-78
2021/10/14 17:52:31;;;;;;;71.30;37.03;;;;;;;10.79;83.96;100887.31;8486855;34;20423;-75
2021/10/14 17:57:37;;;;;;;57.67;28.35;;;;;;;10.84;84.02;100893.22;8452329;34;20693;-77
2021/10/14 18:02:42;;;;;;;37.05;19.67;;;;;;;10.95;84.03;100883.50;8476860;34;20152;-77
2021/10/14 18:39:59;;;;;;;88.18;45.45;;;;;;;11.04;83.24;100848.72;8471621;34;20216;-75
2021/10/14 18:45:04;;;;;;;57.97;29.52;;;;;;;10.84;84.24;100842.16;8449135;34;20168;-76
2021/10/14 18:50:12;;;;;;;31.05;18.58;;;;;;;10.94;83.35;100828.00;8477309;34;20454;-76
2021/10/14 18:55:17;;;;;;;29.10;17.90;;;;;;;10.94;83.25;100826.22;8477804;34;20134;-76
2021/10/14 19:00:21;;;;;;;36.45;19.60;;;;;;;10.94;83.14;100836.97;8453584;34;20137;-76
2021/10/14 19:05:34;;;;;;;27.30;15.13;;;;;;;10.82;83.21;100822.59;8452578;34;20454;-76
2021/10/14 20:15:14;;;;;;;22.67;12.73;;;;;;;10.98;81.57;100798.09;8468277;34;20449;-76
2021/10/14 20:20:19;;;;;;;22.25;13.95;;;;;;;10.82;81.97;100784.13;8445466;34;20498;-76
2021/10/14 20:25:22;;;;;;;20.52;13.82;;;;;;;10.95;81.85;100790.28;8494136;28;20149;-76
2021/10/14 20:30:25;;;;;;;25.70;13.80;;;;;;;11.04;81.68;100781.50;8528350;33;20306;-74
2021/10/14 20:35:33;;;;;;;26.40;14.18;;;;;;;10.76;82.14;100795.34;8514280;33;20260;-76
2021/10/14 20:40:36;;;;;;;23.48;13.32;;;;;;;10.91;81.92;100779.88;8465308;34;20268;-76
2021/10/14 20:45:39;;;;;;;23.45;13.35;;;;;;;10.94;81.50;100766.19;8467610;33;20516;-77
2021/10/14 20:50:44;;;;;;;21.42;12.10;;;;;;;10.70;81.68;100772.47;8470036;34;20494;-78
2021/10/14 20:56:01;;;;;;;25.27;13.60;;;;;;;10.88;81.36;100756.78;8464839;33;21121;-77
2021/10/14 21:06:43;;;;;;;21.98;12.10;;;;;;;10.88;80.90;100729.91;8459550;33;21087;-76
2021/10/14 21:11:46;;;;;;;21.58;12.82;;;;;;;10.82;81.00;100739.28;8479735;34;20144;-77
2021/10/14 21:16:49;;;;;;;23.92;12.48;;;;;;;10.74;81.56;100730.09;8472446;33;20568;-76
2021/10/14 21:21:53;;;;;;;23.83;12.63;;;;;;;10.68;81.28;100731.44;8475564;34;20709;-79
2021/10/14 21:26:59;;;;;;;21.23;12.27;;;;;;;10.72;80.52;100721.28;8481204;34;20928;-77
2021/10/14 21:32:24;;;;;;;25.95;13.63;;;;;;;10.69;80.47;100713.47;8490653;34;20436;-76
2021/10/14 21:37:30;;;;;;;21.95;12.88;;;;;;;10.74;80.33;100709.47;8484530;33;20435;-78
2021/10/14 21:42:33;;;;;;;20.58;11.43;;;;;;;10.58;80.40;100707.06;8482033;34;20519;-78
2021/10/14 21:47:38;;;;;;;20.35;12.27;;;;;;;10.65;80.28;100709.31;8472915;33;20778;-78
2021/10/14 21:52:47;;;;;;;17.65;11.25;;;;;;;10.75;80.30;100703.13;8476049;34;20566;-74
2021/10/14 21:57:50;;;;;;;20.08;11.23;;;;;;;10.81;79.61;100713.41;8474304;33;20225;-78
2021/10/14 22:02:53;;;;;;;15.88;10.13;;;;;;;10.67;80.23;100704.66;8449526;34;20450;-76
2021/10/14 22:08:03;;;;;;;15.63;9.18;;;;;;;10.73;79.93;100704.22;8483230;33;20427;-76
2021/10/14 22:13:07;;;;;;;16.95;9.18;;;;;;;10.63;79.66;100690.63;8488565;34;20142;-78
2021/10/14 22:18:10;;;;;;;14.95;9.20;;;;;;;10.77;79.41;100679.66;8495833;33;20190;-76
2021/10/14 22:23:15;;;;;;;20.80;10.88;;;;;;;10.73;79.63;100690.78;8496877;34;20422;-78
2021/10/14 22:28:18;;;;;;;19.27;8.77;;;;;;;10.65;78.98;100674.41;8496497;33;20579;-78
2021/10/14 22:33:21;;;;;;;13.68;9.18;;;;;;;10.94;79.13;100656.00;8498301;34;20452;-78
2021/10/14 22:38:26;;;;;;;15.85;9.98;;;;;;;10.75;79.05;100651.19;8497588;33;20523;-77
2021/10/14 22:43:29;;;;;;;17.80;10.30;;;;;;;10.84;78.83;100637.91;8494696;34;20157;-77
2021/10/14 22:48:32;;;;;;;19.75;10.80;;;;;;;10.83;78.34;100630.84;8487391;33;20207;-77
2021/10/14 22:53:36;;;;;;;20.58;10.25;;;;;;;10.75;78.59;100622.53;8495056;34;20237;-78
2021/10/14 22:58:39;;;;;;;20.40;10.10;;;;;;;10.84;78.26;100607.50;8487086;33;20971;-78
2021/10/14 23:03:42;;;;;;;18.05;10.57;;;;;;;10.70;78.55;100613.09;8482120;34;20953;-77
2021/10/14 23:08:47;;;;;;;16.08;8.88;;;;;;;10.80;77.85;100606.88;8482128;33;21071;-76
2021/10/14 23:13:50;;;;;;;17.58;10.10;;;;;;;10.72;77.85;100593.19;8486297;34;20249;-75
2021/10/14 23:18:52;;;;;;;16.42;10.02;;;;;;;10.78;77.97;100594.56;8486380;33;20288;-77
2021/10/14 23:23:58;;;;;;;21.02;10.20;;;;;;;10.83;77.35;100592.34;8479330;34;20942;-78
2021/10/14 23:29:01;;;;;;;21.58;10.40;;;;;;;10.66;78.08;100590.13;8479310;33;20287;-76
2021/10/14 23:34:04;;;;;;;19.77;8.80;;;;;;;10.44;78.10;100585.56;8474545;33;20137;-77
2021/10/14 23:39:08;;;;;;;14.07;8.02;;;;;;;10.36;78.05;100578.94;8477397;34;20149;-76
2021/10/14 23:44:11;;;;;;;16.63;9.48;;;;;;;10.84;76.34;100577.94;8466863;33;20436;-77
2021/10/14 23:49:15;;;;;;;16.20;8.88;;;;;;;10.70;76.35;100570.97;8471222;34;20502;-76
2021/10/14 23:54:20;;;;;;;15.18;8.07;;;;;;;10.72;75.84;100573.53;8473530;33;20986;-76
2021/10/14 23:59:23;;;;;;;15.73;9.30;;;;;;;10.80;74.94;100563.88;8478011;34;20253;-77
